KLCK/LCK METAR and TAF weather

Enter ICAO airport designator
Station Type Date Time Source
KLCK METAR 2022/01/27 23:55 UTC NOAA

KLCK 272355Z AUTO 24005KT 10SM BKN028 OVC034 M01/M04 A3017 RMK AO2 T10101041 10001 21025


Station Type Date Time Source
KLCK Decoded METAR 2022/01/27 23:55 UTC NOAA

Rickenbacker Air National Guard Base, OH, United States (KLCK) 39-49N 082-56W
Jan 27, 2022 - 06:55 PM EST / 2022.01.27 2355 UTC
Wind: from the WSW (240 degrees) at 6 MPH (5 KT):0
Visibility: 10 mile(s):0
Sky conditions: overcast
Temperature: 30.2 F (-1.0 C)
Windchill: 24 F (-4 C):1
Dew Point: 24.6 F (-4.1 C)
Relative Humidity: 79%
Pressure (altimeter): 30.17 in. Hg (1021 hPa)
ob: KLCK 272355Z AUTO 24005KT 10SM BKN028 OVC034 M01/M04 A3017 RMK AO2 T10101041 10001 21025
cycle: 0

Station Type Date Time Source
KLCK TAF 2022/01/27 18:50 UTC NOAA

TAF KLCK 271740Z 2718/2818 20009KT P6SM OVC060
FM272000 21010KT P6SM VCSH SCT025 OVC035
FM272300 23007KT P6SM VCSH OVC025
FM280800 30004KT P6SM OVC009
FM281200 34006KT P6SM OVC012

Example: see airport list